• Join FlightAware (Why Join?)
  • Login
  • US Flag 
12:42PM EDT


 

Airport Tracker/Info


-or-


 

Live Flight TrackerFlight Track Log ✈ N789EX ✈ 13-Nov-2013 ✈ KBFI - KMWH

Flight Track Log - Related Links

Times and Time Zones

All times are in EST time to prevent confusion due to time zone crossing. See the N789EX flight status page for this flight to view local times or setup timezone preferences in your user account.

Time Position Orientation Groundspeed Altitude Reporting Facility
EST Latitude Longitude Course Direction KTS MPH feet Rate Location/Type
12:17PM 47.4820 -122.2550 142° Southeast 225 259 1,400  Level FlightAware
12:18PM 47.4590 -122.2170 132° Southeast 259 298 2,500 2,520 Climbing FlightAware
12:19PM 47.4470 -122.1540 106° East 273 314 4,200 2,640 Climbing FlightAware
12:19PM 47.4360 -122.0900 104° East 280 322 5,900 2,760 Climbing FlightAware
12:20PM 47.4330 -122.0360 95° East 285 328 7,200 2,760 Climbing FlightAware
12:20PM 47.4330 -122.0140 90° East 297 342 9,000 1,620 Climbing FlightAware
12:21PM 47.4310 -121.8860 91° East 303 349 9,400 1,320 Climbing FlightAware
12:22PM 47.4300 -121.7930 91° East 369 425 10,600 1,680 Climbing FlightAware
12:22PM 47.4300 -121.7080 90° East 373 429 11,200 1,620 Climbing FlightAware
12:23PM 47.4280 -121.5920 91° East 422 486 12,700 2,100 Climbing FlightAware
12:24PM 47.4250 -121.4440 92° East 432 497 14,500 1,380 Climbing FlightAware
12:24PM 47.4240 -121.3350 91° East 460 529 14,600 60 Climbing FlightAware
12:25PM 47.4220 -121.2450 92° East 458 527 14,600  Level FlightAware
12:25PM 47.4210 -121.1510 91° East 461 531 14,600  Level FlightAware
12:26PM 47.4190 -121.0640 92° East 460 529 14,600  Level FlightAware
12:26PM 47.4180 -120.9650 91° East 460 529 14,600  Level FlightAware
12:27PM 47.4170 -120.8690 91° East 460 529 14,600  Level FlightAware
12:27PM 47.4150 -120.7700 92° East 460 529 14,600 -300 Level FlightAware
12:29PM 47.4080 -120.5450 93° East 347 399 14,100 -780 Descending FlightAware
12:30PM 47.4040 -120.4230 93° East 335 386 13,000 -1,380 Descending FlightAware
12:30PM 47.4030 -120.3470 91° East 336 387 12,100 -1,620 Descending FlightAware
12:31PM 47.4030 -120.2660 90° East 337 388 11,200 -780 Descending FlightAware
12:31PM 47.4040 -120.1780 89° East 337 388 11,100 -120 Descending FlightAware
12:32PM 47.4040 -120.1120 90° East 337 388 11,100  Level FlightAware
12:33PM 47.4050 -120.0410 89° East 337 388 11,100 -420 Level FlightAware
12:33PM 47.3436 -119.9517 89° East 331 381 10,600 -1,020 Descending Seattle Center
12:34PM 47.2797 -119.8572 135° Southeast 326 375 9,400 -1,140 Descending Seattle Center
12:35PM 47.2186 -119.7717 136° Southeast 308 354 8,400 -840 Descending Seattle Center
12:36PM 47.1614 -119.6906 136° Southeast 288 331 7,800 -900 Descending Seattle Center
12:37PM 47.1086 -119.6172 137° Southeast 249 287 6,600 -1,380 Descending Seattle Center
12:38PM 47.0764 -119.5350 120° Southeast 243 280 5,000 -1,200 Descending Seattle Center
12:39PM 47.0597 -119.4431 105° East 235 270 4,200 -1,020 Descending Seattle Center
12:40PM 47.0433 -119.3572 106° East 224 258 3,000 -600 Descending Seattle Center
12:41PM 47.0325 -119.2619 99° East 229 264 3,000  Level Seattle Center
12:42PM 47.0817 -119.2586 North 191 220 3,000 -300 Level Seattle Center
12:44PM 47.1292 -119.2811 342° North 183 211 2,500 -720 Descending Seattle Center
12:45PM 47.1733 -119.3017 342° North 171 197 1,600 180 Descending Seattle Center
12:46PM 47.2219 -119.3242 343° North 176 203 2,900 1,020 Climbing Seattle Center
12:47PM 47.2475 -119.2706 55° Northeast 227 261 3,700 360 Climbing Seattle Center
12:48PM 47.1958 -119.2247 149° Southeast 218 251 3,700 -60 Level Seattle Center
12:49PM 47.1486 -119.1875 152° Southeast 216 249 3,600 -120 Descending Seattle Center